Time;durP1;ratioP1;P1;durP2;ratioP2;P2;SDS_P1;SDS_P2;PMS_P1;PMS_P2;Temp;Humidity;BMP_temperature;BMP_pressure;BME280_temperature;BME280_humidity;BME280_pressure;Samples;Min_cycle;Max_cycle;Signal;HPM_P1;HPM_P2
2021/05/12 00:01:51;;;;;;;49.17;24.95;;;;;;;9.88;100.00;101111.22;5226368;28;20078;-84
2021/05/12 00:04:22;;;;;;;52.88;25.85;;;;;;;9.88;100.00;101119.25;5226635;28;20028;-85
2021/05/12 00:06:52;;;;;;;58.83;28.50;;;;;;;9.86;100.00;101118.56;5226230;28;20039;-85
2021/05/12 00:09:23;;;;;;;56.00;25.95;;;;;;;9.88;100.00;101113.88;5226675;28;20452;-85
2021/05/12 00:11:53;;;;;;;54.05;27.52;;;;;;;9.87;100.00;101120.25;5225932;28;20027;-85
2021/05/12 00:14:23;;;;;;;56.78;26.52;;;;;;;9.84;100.00;101115.22;5226514;28;20099;-85
2021/05/12 00:16:54;;;;;;;55.60;27.48;;;;;;;9.84;100.00;101120.59;5226067;28;20033;-85
2021/05/12 00:19:24;;;;;;;49.42;25.77;;;;;;;9.81;100.00;101118.19;5226053;28;20435;-85
2021/05/12 00:22:17;;;;;;;56.17;27.48;;;;;;;9.82;100.00;101126.06;5225886;28;20468;-85
2021/05/12 00:24:47;;;;;;;65.97;28.02;;;;;;;9.83;100.00;101121.56;5226009;28;20056;-85
2021/05/12 00:27:17;;;;;;;56.97;27.48;;;;;;;9.81;100.00;101123.56;5226092;28;20067;-84
2021/05/12 00:29:48;;;;;;;60.55;27.55;;;;;;;9.78;100.00;101126.53;5224672;28;20036;-85
2021/05/12 00:32:19;;;;;;;56.53;27.25;;;;;;;9.79;100.00;101133.59;5225898;28;20546;-84
2021/05/12 00:34:49;;;;;;;54.17;26.98;;;;;;;9.77;100.00;101130.22;5225464;28;20033;-85
2021/05/12 00:37:20;;;;;;;56.58;27.40;;;;;;;9.76;100.00;101125.84;5226020;28;20122;-84
2021/05/12 00:39:50;;;;;;;51.72;26.35;;;;;;;9.74;100.00;101122.47;5225591;28;20029;-85
2021/05/12 00:42:21;;;;;;;57.45;26.33;;;;;;;9.67;100.00;101127.63;5225748;28;20082;-85
2021/05/12 00:44:51;;;;;;;47.42;23.45;;;;;;;9.64;100.00;101132.44;5224242;28;20028;-85
2021/05/12 00:47:27;;;;;;;57.53;26.65;;;;;;;9.60;100.00;101134.59;5225059;28;20450;-85
2021/05/12 00:49:58;;;;;;;56.00;26.80;;;;;;;9.55;100.00;101126.16;5225428;28;20468;-85
2021/05/12 00:52:28;;;;;;;56.22;28.15;;;;;;;9.50;100.00;101133.81;5225223;28;20032;-85
2021/05/12 00:54:59;;;;;;;59.47;27.63;;;;;;;9.42;100.00;101123.84;5225543;28;20020;-85
2021/05/12 00:57:29;;;;;;;61.53;29.25;;;;;;;9.37;100.00;101126.16;5225128;28;20052;-85
2021/05/12 01:00:00;;;;;;;56.92;27.80;;;;;;;9.27;100.00;101115.50;5225476;28;20175;-85
2021/05/12 01:02:32;;;;;;;59.08;28.30;;;;;;;9.24;100.00;101121.19;5225360;28;20036;-84
2021/05/12 01:05:04;;;;;;;50.50;25.08;;;;;;;9.16;100.00;101121.06;5225769;28;20028;-85
2021/05/12 01:07:35;;;;;;;54.53;27.95;;;;;;;9.06;100.00;101123.81;5225623;28;20025;-85
2021/05/12 01:10:06;;;;;;;46.40;22.55;;;;;;;8.96;100.00;101125.69;5224878;28;20029;-85
2021/05/12 01:12:36;;;;;;;46.03;22.52;;;;;;;8.85;100.00;101123.22;5225554;28;20032;-86
2021/05/12 01:15:08;;;;;;;56.65;25.17;;;;;;;8.78;100.00;101122.13;5225510;28;20032;-85
2021/05/12 01:17:38;;;;;;;52.40;25.45;;;;;;;8.73;100.00;101127.91;5225289;28;20032;-85
2021/05/12 01:20:10;;;;;;;61.22;26.90;;;;;;;8.64;100.00;101125.31;5223896;28;20373;-85
2021/05/12 01:22:41;;;;;;;53.40;24.63;;;;;;;8.61;100.00;101123.75;5224780;28;20444;-85
2021/05/12 01:25:12;;;;;;;60.35;26.90;;;;;;;8.59;100.00;101127.56;5224989;28;20112;-85
2021/05/12 01:27:43;;;;;;;54.35;25.70;;;;;;;8.53;100.00;101128.97;5225017;28;20060;-84
2021/05/12 01:30:14;;;;;;;42.97;22.35;;;;;;;8.51;100.00;101131.81;5225118;28;20542;-85
2021/05/12 01:32:44;;;;;;;57.72;25.60;;;;;;;8.49;100.00;101123.09;5224962;28;20086;-85
2021/05/12 01:35:15;;;;;;;62.60;27.80;;;;;;;8.50;100.00;101132.78;5224717;28;20024;-85
2021/05/12 01:37:46;;;;;;;54.88;24.90;;;;;;;8.49;100.00;101138.31;5224898;28;20025;-84
2021/05/12 01:40:17;;;;;;;44.60;23.02;;;;;;;8.40;100.00;101134.66;5224822;28;20029;-85
2021/05/12 01:42:48;;;;;;;48.28;23.42;;;;;;;8.38;100.00;101136.63;5225010;28;20025;-85
2021/05/12 01:45:18;;;;;;;44.63;22.48;;;;;;;8.28;100.00;101133.97;5225301;28;20456;-84
2021/05/12 01:47:49;;;;;;;47.00;22.33;;;;;;;8.21;100.00;101130.16;5224990;28;20106;-85
2021/05/12 01:50:20;;;;;;;54.33;24.38;;;;;;;8.17;100.00;101128.75;5224759;28;20021;-84
2021/05/12 01:52:50;;;;;;;54.88;23.88;;;;;;;8.18;100.00;101124.25;5224779;28;20029;-84
2021/05/12 01:55:21;;;;;;;53.60;26.13;;;;;;;8.15;100.00;101128.06;5225199;28;20387;-85
2021/05/12 01:57:52;;;;;;;50.10;24.42;;;;;;;8.11;100.00;101120.47;5219013;28;20028;-84
2021/05/12 02:00:34;;;;;;;51.10;22.75;;;;;;;8.05;100.00;101119.22;5224467;28;20044;-85
2021/05/12 02:03:08;;;;;;;53.35;24.60;;;;;;;8.00;100.00;101118.81;5220356;28;20442;-85
2021/05/12 02:05:41;;;;;;;60.10;27.98;;;;;;;7.99;100.00;101122.47;5224514;28;20031;-85
2021/05/12 02:08:14;;;;;;;67.63;27.38;;;;;;;7.92;100.00;101116.84;5224494;28;20116;-85
2021/05/12 02:10:45;;;;;;;58.85;26.40;;;;;;;7.87;100.00;101107.56;5222953;28;20025;-85
2021/05/12 02:13:25;;;;;;;51.15;25.15;;;;;;;7.76;100.00;101113.91;5224766;28;20392;-84
2021/05/12 02:15:57;;;;;;;45.90;22.95;;;;;;;7.70;100.00;101103.81;5224591;28;20074;-84
2021/05/12 02:18:28;;;;;;;35.95;18.35;;;;;;;7.61;100.00;101110.81;5224896;28;20013;-84
2021/05/12 02:20:59;;;;;;;46.78;21.83;;;;;;;7.53;100.00;101108.88;5224256;28;20036;-85
2021/05/12 02:23:30;;;;;;;26.00;14.95;;;;;;;7.49;100.00;101115.47;5224415;28;20029;-84
2021/05/12 02:26:01;;;;;;;30.45;16.80;;;;;;;7.39;100.00;101122.63;5224482;28;20103;-85
2021/05/12 02:28:31;;;;;;;28.67;15.38;;;;;;;7.33;100.00;101122.31;5224298;28;20116;-85
2021/05/12 02:31:02;;;;;;;36.20;18.00;;;;;;;7.26;100.00;101111.34;5224276;28;20495;-84
2021/05/12 02:33:32;;;;;;;37.83;17.58;;;;;;;7.24;100.00;101118.66;5224037;28;20112;-85
2021/05/12 02:36:03;;;;;;;40.63;18.83;;;;;;;7.18;100.00;101104.06;5226377;28;20450;-85
2021/05/12 02:38:35;;;;;;;30.10;13.10;;;;;;;7.17;100.00;101121.03;5228626;28;20025;-85
2021/05/12 02:41:07;;;;;;;28.65;14.80;;;;;;;7.14;100.00;101112.47;5227919;28;20028;-85
2021/05/12 02:43:37;;;;;;;25.92;13.68;;;;;;;7.11;100.00;101110.06;5228265;28;20057;-84
2021/05/12 02:46:08;;;;;;;93.93;12.52;;;;;;;7.05;100.00;101107.97;5228147;28;20514;-85
2021/05/12 02:48:38;;;;;;;76.60;11.98;;;;;;;6.92;100.00;101106.38;5228059;28;20481;-85
2021/05/12 02:51:09;;;;;;;46.30;13.60;;;;;;;6.81;100.00;101110.97;5228175;28;20052;-85
2021/05/12 02:53:39;;;;;;;28.27;13.73;;;;;;;6.71;100.00;101121.59;5227993;28;20099;-85
2021/05/12 02:56:09;;;;;;;33.88;16.80;;;;;;;6.65;100.00;101122.97;5228343;28;20025;-85
2021/05/12 02:58:40;;;;;;;29.35;14.13;;;;;;;6.59;100.00;101123.53;5227493;28;20013;-84
2021/05/12 03:01:10;;;;;;;124.18;20.83;;;;;;;6.54;100.00;101125.75;5226240;28;20465;-85
2021/05/12 03:03:41;;;;;;;44.45;18.45;;;;;;;6.48;100.00;101131.63;5226409;28;20036;-84
2021/05/12 03:06:11;;;;;;;49.95;20.52;;;;;;;6.42;100.00;101135.63;5227597;28;20025;-85
2021/05/12 03:08:42;;;;;;;45.63;20.10;;;;;;;6.44;100.00;101144.34;5227481;28;20029;-85
2021/05/12 03:11:12;;;;;;;42.28;17.88;;;;;;;6.55;100.00;101131.91;5227331;28;20114;-84
2021/05/12 03:13:43;;;;;;;41.28;17.17;;;;;;;6.55;100.00;101130.09;5227921;28;20117;-85
2021/05/12 03:16:13;;;;;;;44.67;18.42;;;;;;;6.54;100.00;101132.91;5227472;28;20048;-85
2021/05/12 03:18:44;;;;;;;43.13;18.52;;;;;;;6.48;100.00;101135.13;5227790;28;20031;-85
2021/05/12 03:21:14;;;;;;;43.22;18.17;;;;;;;6.43;100.00;101139.16;5227115;28;20116;-85
2021/05/12 03:23:46;;;;;;;32.38;14.68;;;;;;;6.37;100.00;101131.69;5227248;28;20040;-85
2021/05/12 03:26:18;;;;;;;32.50;16.05;;;;;;;6.30;100.00;101131.38;5227108;28;20032;-85
2021/05/12 03:28:48;;;;;;;39.05;17.88;;;;;;;6.23;100.00;101128.41;5227188;28;20498;-85
2021/05/12 03:31:19;;;;;;;46.38;16.65;;;;;;;6.17;100.00;101134.22;5226812;28;20037;-84
2021/05/12 03:33:52;;;;;;;39.05;16.15;;;;;;;6.16;100.00;101137.03;5227007;28;20048;-85
2021/05/12 03:36:24;;;;;;;42.00;17.92;;;;;;;6.12;100.00;101144.44;5227102;28;20041;-85
2021/05/12 03:38:54;;;;;;;35.55;16.73;;;;;;;6.07;100.00;101151.13;5227050;28;20028;-85
2021/05/12 03:41:25;;;;;;;43.40;17.98;;;;;;;6.04;100.00;101148.75;5226847;28;20420;-85
2021/05/12 03:43:55;;;;;;;36.42;16.88;;;;;;;6.00;100.00;101160.63;5227003;28;20025;-84
2021/05/12 03:46:26;;;;;;;37.38;17.42;;;;;;;5.92;100.00;101155.91;5226136;28;20119;-84
2021/05/12 03:48:56;;;;;;;51.92;20.48;;;;;;;5.89;100.00;101154.34;5227071;28;20029;-84
2021/05/12 03:51:27;;;;;;;42.95;15.98;;;;;;;5.90;100.00;101161.34;5226935;28;20029;-84
2021/05/12 03:53:58;;;;;;;35.85;14.95;;;;;;;5.85;100.00;101166.22;5225717;28;20372;-85
2021/05/12 03:56:28;;;;;;;34.78;16.33;;;;;;;5.83;100.00;101167.34;5226840;28;20036;-85
2021/05/12 03:58:59;;;;;;;45.22;18.45;;;;;;;5.81;100.00;101169.25;5226459;28;20021;-84
2021/05/12 04:01:29;;;;;;;36.63;15.98;;;;;;;5.81;100.00;101174.59;5226871;28;20107;-84
2021/05/12 04:04:05;;;;;;;39.97;15.75;;;;;;;5.78;100.00;101170.38;5227581;28;20373;-84
2021/05/12 04:06:38;;;;;;;34.22;15.68;;;;;;;5.76;100.00;101169.63;5226724;28;20563;-85
2021/05/12 04:09:08;;;;;;;28.42;12.82;;;;;;;5.70;100.00;101172.81;5226371;28;20423;-85
2021/05/12 04:11:40;;;;;;;28.50;13.95;;;;;;;5.69;100.00;101171.97;5226500;28;20023;-85
2021/05/12 04:14:10;;;;;;;38.97;15.70;;;;;;;5.70;100.00;101176.31;5227221;28;20510;-85
2021/05/12 04:16:41;;;;;;;28.67;12.57;;;;;;;5.69;100.00;101176.47;5226496;28;20017;-85
2021/05/12 04:19:11;;;;;;;22.98;11.30;;;;;;;5.71;100.00;101185.16;5237771;28;20021;-85
2021/05/12 04:21:42;;;;;;;25.73;11.77;;;;;;;5.67;100.00;101179.25;5222289;28;20033;-85
2021/05/12 04:24:12;;;;;;;21.85;10.65;;;;;;;5.66;100.00;101174.03;5226336;28;20032;-85
2021/05/12 04:26:43;;;;;;;71.20;12.35;;;;;;;5.70;100.00;101180.81;5226219;28;20066;-85
2021/05/12 04:29:13;;;;;;;38.20;15.43;;;;;;;5.72;100.00;101176.19;5225886;28;20412;-85
2021/05/12 04:31:44;;;;;;;38.10;15.68;;;;;;;5.77;100.00;101173.97;5225965;28;20025;-85
2021/05/12 04:34:15;;;;;;;45.63;17.58;;;;;;;5.82;100.00;101184.25;5225615;28;20028;-85
2021/05/12 04:36:46;;;;;;;38.08;15.88;;;;;;;5.85;100.00;101171.53;5226223;28;20020;-85
2021/05/12 04:39:16;;;;;;;41.88;16.20;;;;;;;5.92;100.00;101178.09;5225577;28;20047;-85
2021/05/12 04:41:47;;;;;;;45.97;19.33;;;;;;;6.00;100.00;101192.56;5229089;28;20043;-85
2021/05/12 04:44:17;;;;;;;44.35;18.48;;;;;;;6.07;100.00;101191.06;5225721;28;20108;-84
2021/05/12 04:46:49;;;;;;;39.33;15.75;;;;;;;6.14;100.00;101192.28;5225411;28;20070;-85
2021/05/12 04:49:20;;;;;;;32.63;15.25;;;;;;;6.19;100.00;101193.56;5225542;28;20028;-85
2021/05/12 04:51:50;;;;;;;44.63;16.42;;;;;;;6.28;100.00;101189.28;5225747;28;20060;-86
2021/05/12 04:54:22;;;;;;;45.25;18.52;;;;;;;6.43;100.00;101197.81;5225776;28;20066;-85
2021/05/12 04:56:52;;;;;;;53.65;20.75;;;;;;;6.65;100.00;101199.47;5220636;28;20028;-85
2021/05/12 04:59:23;;;;;;;49.92;19.65;;;;;;;6.79;100.00;101195.59;5223090;28;20028;-85
2021/05/12 05:01:53;;;;;;;63.22;21.10;;;;;;;6.93;100.00;101195.25;5225447;28;20021;-85
2021/05/12 05:04:24;;;;;;;53.53;21.25;;;;;;;7.12;100.00;101199.78;5212044;28;20032;-85
2021/05/12 05:06:54;;;;;;;48.03;19.98;;;;;;;7.26;100.00;101197.59;5225366;28;20039;-85
2021/05/12 05:09:25;;;;;;;44.13;18.77;;;;;;;7.36;100.00;101197.63;5225602;28;20063;-85
2021/05/12 05:11:55;;;;;;;53.33;18.83;;;;;;;7.58;100.00;101198.34;5224910;28;20029;-85
2021/05/12 05:14:26;;;;;;;47.63;18.92;;;;;;;7.72;100.00;101196.13;5225313;28;20043;-85
2021/05/12 05:16:57;;;;;;;44.63;18.48;;;;;;;7.91;100.00;101206.00;5224990;28;20017;-85
2021/05/12 05:19:28;;;;;;;42.95;17.67;;;;;;;8.05;100.00;101202.91;5224849;28;20020;-85
2021/05/12 05:22:00;;;;;;;43.10;16.85;;;;;;;8.25;100.00;101200.22;5225035;28;20078;-85
2021/05/12 05:24:30;;;;;;;37.78;16.17;;;;;;;8.82;100.00;101206.44;5224796;28;20089;-85
2021/05/12 05:27:01;;;;;;;25.83;12.73;;;;;;;9.96;100.00;101206.94;5225014;28;20017;-85
2021/05/12 05:29:31;;;;;;;21.10;10.27;;;;;;;11.40;100.00;101215.28;5224802;28;20439;-85
2021/05/12 05:32:02;;;;;;;20.90;8.05;;;;;;;12.90;100.00;101206.94;5225084;28;20028;-86
2021/05/12 05:34:32;;;;;;;16.15;7.78;;;;;;;13.43;100.00;101204.56;5224669;28;20036;-85
2021/05/12 05:37:03;;;;;;;14.82;6.93;;;;;;;13.08;100.00;101204.00;5224822;28;20100;-86
2021/05/12 05:39:35;;;;;;;14.00;6.63;;;;;;;12.69;100.00;101199.41;5224612;28;20470;-85
2021/05/12 05:42:08;;;;;;;13.18;6.90;;;;;;;12.00;100.00;101198.13;5225188;28;20017;-86
2021/05/12 05:44:39;;;;;;;18.17;7.97;;;;;;;11.85;100.00;101197.94;5224511;28;20021;-86
2021/05/12 05:47:09;;;;;;;20.95;7.13;;;;;;;11.53;100.00;101190.59;5224441;28;20029;-85
2021/05/12 05:49:40;;;;;;;16.63;7.22;;;;;;;11.92;100.00;101192.72;5219581;28;20029;-86
2021/05/12 05:52:11;;;;;;;16.17;6.47;;;;;;;13.07;100.00;101202.34;5224698;28;20079;-87
2021/05/12 05:54:41;;;;;;;8.98;5.20;;;;;;;14.36;100.00;101192.81;5224765;28;20457;-86
2021/05/12 05:57:18;;;;;;;11.07;5.60;;;;;;;15.24;100.00;101203.69;5224569;28;20104;-89
2021/05/12 05:59:48;;;;;;;10.48;5.82;;;;;;;15.62;100.00;101194.59;5224198;28;20488;-86
2021/05/12 06:02:18;;;;;;;13.07;5.00;;;;;;;16.57;100.00;101205.09;5224443;28;20059;-85
2021/05/12 06:04:49;;;;;;;15.70;5.70;;;;;;;16.79;100.00;101208.59;5223251;28;20021;-86
2021/05/12 06:07:19;;;;;;;13.43;5.57;;;;;;;16.85;100.00;101212.38;5224512;28;20033;-86
2021/05/12 06:09:50;;;;;;;7.55;4.07;;;;;;;17.68;100.00;101210.50;5225879;28;20031;-86
2021/05/12 06:12:21;;;;;;;14.60;4.70;;;;;;;16.85;100.00;101213.22;5228438;28;20120;-86
2021/05/12 06:14:51;;;;;;;12.05;4.45;;;;;;;16.61;100.00;101208.22;5228473;28;20024;-85
2021/05/12 06:17:21;;;;;;;8.60;3.70;;;;;;;17.04;100.00;101217.94;5228515;28;20464;-87
2021/05/12 06:19:53;;;;;;;13.82;4.63;;;;;;;17.17;100.00;101219.03;5228659;28;20175;-86
2021/05/12 06:22:23;;;;;;;11.48;4.82;;;;;;;16.98;100.00;101223.31;5228763;28;20035;-87
2021/05/12 06:24:54;;;;;;;17.02;4.25;;;;;;;16.78;100.00;101224.03;5228103;28;20119;-87
2021/05/12 06:27:24;;;;;;;9.88;3.97;;;;;;;16.67;100.00;101216.41;5228630;28;20126;-88
2021/05/12 06:29:55;;;;;;;11.27;4.13;;;;;;;16.09;100.00;101207.59;5228485;28;20029;-86
2021/05/12 06:32:25;;;;;;;9.40;4.28;;;;;;;15.71;100.00;101210.53;5234676;28;20028;-86
2021/05/12 06:34:56;;;;;;;16.13;4.18;;;;;;;14.83;100.00;101214.13;5227963;28;20462;-86
2021/05/12 06:37:29;;;;;;;12.85;3.80;;;;;;;14.72;100.00;101214.59;5228416;28;20055;-85
2021/05/12 06:39:59;;;;;;;8.05;3.40;;;;;;;14.36;100.00;101222.50;5228222;28;20032;-86
2021/05/12 06:42:29;;;;;;;13.00;3.83;;;;;;;14.01;100.00;101219.41;5227901;28;20052;-87
2021/05/12 06:45:00;;;;;;;10.77;3.33;;;;;;;14.08;100.00;101211.41;5228140;28;20063;-86
2021/05/12 06:47:30;;;;;;;16.10;3.92;;;;;;;13.85;100.00;101219.50;5227439;28;20029;-85
2021/05/12 06:50:01;;;;;;;13.15;3.72;;;;;;;13.96;100.00;101211.84;5227582;28;20028;-85
2021/05/12 06:52:31;;;;;;;11.70;3.55;;;;;;;13.73;100.00;101210.97;5228140;28;20610;-85
2021/05/12 06:55:02;;;;;;;11.07;3.17;;;;;;;13.65;100.00;101211.00;5227922;28;20024;-86
2021/05/12 06:57:33;;;;;;;9.73;3.65;;;;;;;13.58;100.00;101216.28;5227687;28;20469;-85
2021/05/12 07:00:04;;;;;;;13.43;3.67;;;;;;;13.77;100.00;101214.16;5227468;28;20492;-85
2021/05/12 07:02:34;;;;;;;11.05;3.60;;;;;;;14.00;100.00;101212.31;5227542;28;20399;-85
2021/05/12 07:05:05;;;;;;;9.25;3.58;;;;;;;13.65;100.00;101202.94;5227580;28;20025;-85
2021/05/12 07:07:35;;;;;;;10.05;3.53;;;;;;;13.70;100.00;101209.50;5217855;28;20033;-85
2021/05/12 07:10:07;;;;;;;9.55;3.30;;;;;;;13.86;100.00;101211.25;5226466;28;20523;-85
2021/05/12 07:12:37;;;;;;;12.70;2.88;;;;;;;13.77;100.00;101214.16;5226749;28;20077;-86
2021/05/12 07:15:10;;;;;;;14.60;3.05;;;;;;;13.83;100.00;101208.88;5226545;28;20334;-86
2021/05/12 07:17:41;;;;;;;10.25;3.20;;;;;;;14.13;100.00;101198.22;5226679;28;20067;-85
2021/05/12 07:20:12;;;;;;;15.57;2.70;;;;;;;14.37;100.00;101214.22;5226275;28;20053;-84
2021/05/12 07:22:42;;;;;;;10.85;2.47;;;;;;;13.99;100.00;101206.06;5225664;28;20021;-84
2021/05/12 07:25:14;;;;;;;8.60;2.33;;;;;;;14.26;100.00;101201.16;5225642;28;20056;-84
2021/05/12 07:27:46;;;;;;;11.20;3.10;;;;;;;14.29;100.00;101206.19;5226038;28;20437;-84
2021/05/12 07:30:17;;;;;;;11.75;2.40;;;;;;;14.62;100.00;101212.16;5227533;28;20155;-84
2021/05/12 07:32:49;;;;;;;13.10;2.97;;;;;;;14.50;100.00;101209.03;5226662;28;20112;-85
2021/05/12 07:35:20;;;;;;;9.43;3.03;;;;;;;14.55;100.00;101208.50;5225828;28;20032;-84
2021/05/12 07:37:50;;;;;;;8.25;2.63;;;;;;;14.54;100.00;101200.59;5226022;28;20400;-84
2021/05/12 07:40:21;;;;;;;12.80;3.00;;;;;;;14.60;100.00;101207.94;5224831;28;20029;-85
2021/05/12 07:42:54;;;;;;;15.70;2.58;;;;;;;14.70;100.00;101200.41;5226171;28;20036;-84
2021/05/12 07:45:25;;;;;;;7.47;2.97;;;;;;;14.96;100.00;101200.81;5225875;28;20057;-85
2021/05/12 07:47:56;;;;;;;10.10;2.10;;;;;;;15.15;100.00;101207.50;5225456;28;20472;-85
2021/05/12 07:50:26;;;;;;;17.48;3.47;;;;;;;14.96;100.00;101197.25;5225691;28;20098;-84
2021/05/12 07:52:58;;;;;;;15.15;4.45;;;;;;;15.27;100.00;101203.31;5225976;28;20053;-85
2021/05/12 07:55:29;;;;;;;9.77;2.83;;;;;;;15.10;100.00;101203.69;5225510;28;20020;-85
2021/05/12 07:58:00;;;;;;;20.95;3.90;;;;;;;15.29;100.00;101198.56;5225862;28;20032;-86
2021/05/12 08:00:33;;;;;;;11.68;2.05;;;;;;;15.41;100.00;101193.53;5225256;28;20025;-85
2021/05/12 08:03:03;;;;;;;9.35;2.28;;;;;;;15.46;100.00;101193.78;5225880;28;20029;-85
2021/05/12 08:05:34;;;;;;;10.73;2.90;;;;;;;15.86;100.00;101190.69;5224740;28;20037;-85
2021/05/12 08:08:05;;;;;;;14.23;2.90;;;;;;;15.94;100.00;101193.28;5225577;28;20021;-85
2021/05/12 08:10:35;;;;;;;9.88;2.92;;;;;;;15.95;100.00;101189.53;5224211;28;20024;-85
2021/05/12 08:13:06;;;;;;;12.52;2.63;;;;;;;16.29;100.00;101192.34;5225032;28;20107;-85
2021/05/12 08:15:36;;;;;;;15.07;3.28;;;;;;;16.53;100.00;101190.25;5225356;28;20036;-85
2021/05/12 08:18:07;;;;;;;10.27;2.30;;;;;;;16.81;100.00;101195.69;5225165;28;20017;-85
2021/05/12 08:20:37;;;;;;;11.63;2.20;;;;;;;16.65;100.00;101191.38;5225355;28;20028;-84
2021/05/12 08:23:08;;;;;;;10.75;2.08;;;;;;;16.92;100.00;101200.56;5224794;28;20070;-85
2021/05/12 08:25:43;;;;;;;5.85;2.10;;;;;;;16.51;98.37;101203.16;5224492;28;20492;-85
2021/05/12 08:28:14;;;;;;;18.10;2.72;;;;;;;15.88;98.00;101204.88;5224661;28;20052;-85
2021/05/12 08:30:46;;;;;;;12.88;2.25;;;;;;;15.76;99.45;101207.22;5224792;28;20033;-85
2021/05/12 08:33:16;;;;;;;10.40;2.92;;;;;;;15.79;100.00;101207.69;5224558;28;20041;-85
2021/05/12 08:35:48;;;;;;;13.93;2.20;;;;;;;15.98;100.00;101208.94;5224258;28;20039;-84
2021/05/12 08:38:20;;;;;;;12.65;2.20;;;;;;;15.96;100.00;101207.44;5223440;28;20025;-85
2021/05/12 08:40:54;;;;;;;14.75;2.15;;;;;;;16.25;100.00;101201.91;5224416;28;20044;-85
2021/05/12 08:43:27;;;;;;;9.88;2.25;;;;;;;16.86;100.00;101200.50;5225246;28;20434;-85
2021/05/12 08:45:57;;;;;;;9.18;2.50;;;;;;;16.97;100.00;101200.81;5223314;28;20447;-85
2021/05/12 08:48:28;;;;;;;14.23;2.22;;;;;;;17.21;100.00;101198.63;5224158;28;20017;-85
2021/05/12 08:50:59;;;;;;;20.90;2.60;;;;;;;17.21;74.11;101196.75;5224009;28;20383;-85
2021/05/12 08:53:31;;;;;;;11.25;1.90;;;;;;;16.82;79.66;101198.22;5224700;28;20025;-85
2021/05/12 08:56:03;;;;;;;16.23;3.10;;;;;;;16.52;83.10;101192.13;5223971;28;20155;-85
2021/05/12 08:58:33;;;;;;;18.50;2.65;;;;;;;16.69;76.02;101189.97;5218731;28;20052;-85
2021/05/12 09:01:04;;;;;;;15.07;2.30;;;;;;;17.00;73.83;101184.13;5223624;28;20057;-85
2021/05/12 09:03:35;;;;;;;13.35;2.20;;;;;;;16.89;77.50;101190.13;5224342;28;20024;-85
2021/05/12 09:06:05;;;;;;;9.93;1.85;;;;;;;16.77;77.58;101179.00;5223953;28;20112;-85
2021/05/12 09:08:36;;;;;;;12.13;2.22;;;;;;;16.82;77.76;101181.97;5224216;28;20036;-85
2021/05/12 09:11:07;;;;;;;12.00;2.25;;;;;;;17.22;87.12;101181.31;5223979;28;20029;-85
2021/05/12 09:13:39;;;;;;;16.85;2.75;;;;;;;17.34;82.00;101182.41;5223842;28;20029;-85
2021/05/12 09:16:21;;;;;;;11.13;2.00;;;;;;;17.59;77.50;101175.41;5223737;28;20396;-85
2021/05/12 09:19:04;;;;;;;10.77;2.97;;;;;;;17.84;85.85;101178.41;5223986;28;20017;-84
2021/05/12 09:21:48;;;;;;;16.25;2.58;;;;;;;18.11;83.32;101175.72;5224079;28;20099;-84
2021/05/12 09:24:31;;;;;;;15.63;3.55;;;;;;;17.90;76.44;101175.91;5223745;28;20392;-84
2021/05/12 09:27:04;;;;;;;23.70;2.30;;;;;;;17.70;80.77;101181.28;5223320;28;20092;-85
2021/05/12 09:29:38;;;;;;;8.00;1.90;;;;;;;17.65;72.95;101179.19;5225000;28;20029;-83
2021/05/12 09:32:11;;;;;;;11.52;2.22;;;;;;;16.95;86.79;101177.63;5224346;28;20044;-84
2021/05/12 09:34:50;;;;;;;9.55;2.28;;;;;;;16.94;84.12;101176.81;5225233;28;20025;-84
2021/05/12 09:37:23;;;;;;;11.73;2.35;;;;;;;17.04;79.77;101171.03;5225912;28;20125;-83
2021/05/12 09:39:54;;;;;;;16.13;2.70;;;;;;;16.73;79.57;101168.75;5226024;28;20035;-83
2021/05/12 09:42:25;;;;;;;11.50;2.40;;;;;;;16.58;88.17;101163.41;5224166;28;20052;-84
2021/05/12 09:45:20;;;;;;;10.85;2.47;;;;;;;16.63;82.11;101160.97;5224338;28;20029;-83
2021/05/12 09:47:55;;;;;;;17.37;3.13;;;;;;;17.09;77.96;101163.94;5226002;28;20496;-83
2021/05/12 09:50:31;;;;;;;13.80;2.38;;;;;;;17.00;78.99;101165.16;5224930;28;20063;-85
2021/05/12 09:53:11;;;;;;;10.85;2.17;;;;;;;16.85;80.58;101153.59;5223959;28;20052;-84
2021/05/12 09:55:45;;;;;;;11.75;2.40;;;;;;;17.01;81.43;101155.97;5224300;28;20511;-84
2021/05/12 09:58:18;;;;;;;13.83;2.30;;;;;;;17.23;86.24;101153.19;5218233;28;20021;-85
2021/05/12 10:00:51;;;;;;;9.75;2.22;;;;;;;16.97;79.61;101156.59;5223937;28;20032;-83
2021/05/12 10:03:24;;;;;;;10.70;2.55;;;;;;;16.58;81.06;101155.31;5223557;28;20021;-84
2021/05/12 10:05:59;;;;;;;11.52;2.20;;;;;;;16.76;81.23;101157.50;5223223;28;20029;-84
2021/05/12 10:08:31;;;;;;;12.82;2.28;;;;;;;16.63;84.76;101160.97;5223594;28;20075;-84
2021/05/12 10:11:05;;;;;;;11.68;2.10;;;;;;;16.57;82.61;101157.19;5223357;28;20025;-84
2021/05/12 10:13:36;;;;;;;13.80;2.70;;;;;;;16.52;83.25;101156.09;5223709;28;20055;-84
2021/05/12 10:16:10;;;;;;;9.90;2.38;;;;;;;16.38;86.21;101155.16;5221953;28;20484;-84
2021/05/12 10:18:40;;;;;;;12.65;2.67;;;;;;;16.20;91.66;101154.78;5223254;28;20021;-85
2021/05/12 10:21:12;;;;;;;9.93;2.05;;;;;;;16.22;91.71;101163.56;5223385;28;20029;-85
2021/05/12 10:23:43;;;;;;;10.90;2.05;;;;;;;15.86;93.17;101147.41;5223292;28;20108;-86
2021/05/12 10:26:14;;;;;;;12.18;2.40;;;;;;;15.97;95.08;101150.44;5223239;28;20020;-85
2021/05/12 10:28:45;;;;;;;12.90;2.40;;;;;;;16.07;86.07;101142.00;5222128;28;20070;-85
2021/05/12 10:31:16;;;;;;;11.32;2.22;;;;;;;15.98;99.60;101140.47;5223337;28;20476;-85
2021/05/12 10:33:48;;;;;;;12.75;2.40;;;;;;;16.28;92.85;101144.66;5222207;28;20048;-85
2021/05/12 10:36:20;;;;;;;8.68;2.33;;;;;;;16.62;91.95;101148.47;5223031;28;20033;-86
2021/05/12 10:38:52;;;;;;;9.55;2.53;;;;;;;16.73;92.17;101128.97;5223326;28;20415;-85
2021/05/12 10:41:45;;;;;;;18.15;3.75;;;;;;;17.25;92.18;101132.09;5223332;28;20104;-84
2021/05/12 10:44:37;;;;;;;16.73;2.53;;;;;;;18.14;87.15;101120.19;5223623;28;20029;-84
2021/05/12 10:47:15;;;;;;;12.38;2.30;;;;;;;18.30;85.05;101115.16;5222370;28;20031;-85
2021/05/12 10:49:54;;;;;;;9.52;2.00;;;;;;;19.14;74.81;101116.22;5222873;28;20111;-86
2021/05/12 10:52:24;;;;;;;16.95;2.20;;;;;;;19.14;69.29;101116.22;5223136;28;20033;-83
2021/05/12 10:54:55;;;;;;;8.68;2.08;;;;;;;19.64;59.03;101111.78;5224760;28;20044;-83
2021/05/12 10:57:45;;;;;;;12.18;2.72;;;;;;;19.09;59.00;101103.28;5225712;28;20017;-86
2021/05/12 11:00:18;;;;;;;8.30;2.50;;;;;;;19.15;62.58;101096.13;5227242;28;20028;-85
2021/05/12 11:02:49;;;;;;;12.88;3.08;;;;;;;19.45;60.67;101096.38;5226635;28;20032;-85
2021/05/12 11:05:20;;;;;;;13.38;2.38;;;;;;;19.31;61.75;101092.91;5226603;28;20433;-85
2021/05/12 11:08:11;;;;;;;5.93;1.77;;;;;;;19.01;68.51;101095.34;5226727;28;20035;-85
2021/05/12 11:10:58;;;;;;;7.55;2.10;;;;;;;19.31;68.17;101087.47;5227000;28;20079;-86
2021/05/12 11:13:31;;;;;;;10.70;2.10;;;;;;;19.51;65.48;101086.50;5226574;28;20024;-85
2021/05/12 11:16:04;;;;;;;7.47;1.88;;;;;;;19.40;63.37;101079.88;5226230;28;20025;-85
2021/05/12 11:18:35;;;;;;;5.43;1.45;;;;;;;19.94;66.16;101088.53;5225987;28;20332;-85
2021/05/12 11:21:24;;;;;;;15.82;2.33;;;;;;;20.05;57.10;101085.09;5226209;28;20036;-85
2021/05/12 11:24:01;;;;;;;8.48;1.70;;;;;;;19.97;58.16;101083.47;5226386;28;20029;-85
2021/05/12 11:32:03;;;;;;;8.77;2.35;;;;;;;19.12;61.63;101088.38;5226162;28;20535;-85
2021/05/12 11:34:35;;;;;;;7.10;1.80;;;;;;;19.08;60.29;101074.41;5225597;28;20525;-85
2021/05/12 11:37:17;;;;;;;9.05;2.03;;;;;;;19.05;57.68;101072.13;5224335;28;20104;-85
2021/05/12 11:39:50;;;;;;;10.82;2.13;;;;;;;19.31;66.04;101071.13;5226082;28;20032;-85